createdAt,value
2023-09-15T00:00:19.113Z,71.22
2023-09-15T00:02:47.172Z,71.55
2023-09-15T00:05:15.227Z,72.13
2023-09-15T00:07:42.370Z,72.57
2023-09-15T00:10:13.220Z,72.01
2023-09-15T00:12:43.676Z,72.10
2023-09-15T00:15:11.388Z,72.22
2023-09-15T00:17:40.392Z,72.03
2023-09-15T00:20:14.720Z,72.48
2023-09-15T00:22:50.612Z,72.57
2023-09-15T00:25:21.634Z,72.81
2023-09-15T00:27:50.220Z,73.23
2023-09-15T00:30:19.006Z,73.08
2023-09-15T00:32:48.453Z,72.62
2023-09-15T00:35:19.164Z,72.66
2023-09-15T00:37:47.486Z,72.29
2023-09-15T00:40:15.982Z,72.34
2023-09-15T00:42:44.831Z,72.67
2023-09-15T00:45:15.832Z,71.97
2023-09-15T00:47:47.453Z,72.94
2023-09-15T00:50:16.183Z,72.08
2023-09-15T00:52:46.491Z,73.27
2023-09-15T00:55:14.726Z,72.76
2023-09-15T00:57:42.222Z,72.57
2023-09-15T01:00:14.951Z,72.95
2023-09-15T01:02:46.010Z,73.08
2023-09-15T01:05:21.024Z,73.03
2023-09-15T01:07:50.534Z,73.35
2023-09-15T01:10:17.295Z,73.10
2023-09-15T01:12:44.755Z,72.68
2023-09-15T01:15:12.103Z,72.70
2023-09-15T01:18:07.874Z,72.77
2023-09-15T01:21:06.791Z,73.22
2023-09-15T01:23:55.211Z,73.41
2023-09-15T01:26:28.047Z,73.08
2023-09-15T01:28:57.928Z,73.59
2023-09-15T01:31:25.841Z,73.51
2023-09-15T01:33:53.856Z,73.73
2023-09-15T01:36:20.776Z,73.03
2023-09-15T01:38:48.255Z,73.51
2023-09-15T01:41:15.335Z,73.70
2023-09-15T01:43:42.284Z,73.35
2023-09-15T01:46:09.202Z,73.82
2023-09-15T01:48:37.472Z,74.65
2023-09-15T01:51:04.869Z,75.09
2023-09-15T01:53:32.587Z,74.70
2023-09-15T01:55:59.517Z,75.02
2023-09-15T01:58:26.459Z,75.13
2023-09-15T02:00:53.428Z,74.76
2023-09-15T02:03:20.435Z,74.75
2023-09-15T02:05:47.762Z,75.28
2023-09-15T02:08:14.817Z,75.65
2023-09-15T02:10:41.625Z,75.15
2023-09-15T02:13:10.356Z,75.51
2023-09-15T02:15:37.215Z,75.43
2023-09-15T02:18:04.742Z,76.06
2023-09-15T02:20:31.921Z,75.89
2023-09-15T02:23:04.788Z,75.31
2023-09-15T02:25:32.351Z,75.91
2023-09-15T02:27:59.374Z,76.42
2023-09-15T02:30:29.008Z,76.08
2023-09-15T02:32:56.023Z,76.56
2023-09-15T02:35:22.973Z,77.08
2023-09-15T02:37:49.836Z,76.70
2023-09-15T02:40:17.051Z,76.41
2023-09-15T02:42:44.038Z,76.18
2023-09-15T02:45:12.152Z,76.21
2023-09-15T02:47:39.077Z,76.50
2023-09-15T02:50:06.986Z,76.08
2023-09-15T02:52:34.326Z,76.64
2023-09-15T02:55:01.290Z,76.69
2023-09-15T02:57:31.492Z,76.99
2023-09-15T03:00:01.274Z,76.37
2023-09-15T03:02:30.515Z,76.84
2023-09-15T03:04:57.750Z,77.21
2023-09-15T03:07:24.833Z,77.62
2023-09-15T03:09:51.838Z,77.73
2023-09-15T03:12:18.907Z,78.18
2023-09-15T03:14:45.979Z,78.50
2023-09-15T03:17:13.597Z,78.01
2023-09-15T03:19:41.900Z,77.91
2023-09-15T03:22:09.698Z,77.73
2023-09-15T03:24:37.982Z,78.18
2023-09-15T03:27:06.542Z,77.52
2023-09-15T03:29:33.427Z,78.08
2023-09-15T03:32:00.292Z,77.37
2023-09-15T03:34:27.283Z,77.35
2023-09-15T03:36:54.654Z,77.47
2023-09-15T03:39:23.161Z,77.59
2023-09-15T03:41:50.087Z,77.32
2023-09-15T03:44:16.934Z,76.50
2023-09-15T03:46:43.963Z,77.52
2023-09-15T03:49:11.020Z,77.46
2023-09-15T03:51:38.009Z,77.20
2023-09-15T03:54:05.021Z,76.39
2023-09-15T03:56:33.908Z,76.34
2023-09-15T03:59:01.339Z,76.69
2023-09-15T04:01:28.311Z,75.97
2023-09-15T04:03:55.433Z,76.48
2023-09-15T04:06:23.713Z,76.04
2023-09-15T04:08:51.226Z,75.01
2023-09-15T04:11:18.901Z,76.14
2023-09-15T04:13:45.911Z,75.47
2023-09-15T04:16:13.039Z,75.18
2023-09-15T04:18:40.044Z,75.15
2023-09-15T04:21:06.984Z,75.37
2023-09-15T04:23:34.680Z,75.44
2023-09-15T04:26:05.341Z,74.67
2023-09-15T04:28:32.237Z,75.15
2023-09-15T04:30:59.557Z,74.76
2023-09-15T04:33:26.621Z,74.85
2023-09-15T04:35:53.659Z,75.07
2023-09-15T04:38:20.705Z,74.99
2023-09-15T04:40:47.885Z,74.68
2023-09-15T04:43:18.245Z,75.80
2023-09-15T04:45:45.923Z,75.26
2023-09-15T04:48:13.225Z,75.28
2023-09-15T04:50:40.893Z,75.98
2023-09-15T04:53:11.157Z,75.78
2023-09-15T04:55:41.073Z,74.80
2023-09-15T04:58:08.945Z,74.65
2023-09-15T05:00:36.493Z,75.00
2023-09-15T05:03:04.925Z,74.63
2023-09-15T05:05:32.146Z,74.86
2023-09-15T05:07:59.770Z,73.79
2023-09-15T05:10:26.973Z,73.57
2023-09-15T05:12:54.260Z,73.35
2023-09-15T05:15:22.391Z,73.41
2023-09-15T05:17:49.475Z,74.81
2023-09-15T05:20:17.917Z,74.73
2023-09-15T05:22:44.864Z,73.54
2023-09-15T05:25:12.208Z,74.58
2023-09-15T05:27:39.496Z,73.81
2023-09-15T05:30:08.025Z,75.15
2023-09-15T05:32:37.539Z,74.59
2023-09-15T05:35:07.383Z,73.75
2023-09-15T05:37:34.750Z,74.57
2023-09-15T05:40:01.845Z,74.85
2023-09-15T05:42:30.146Z,75.38
2023-09-15T05:44:56.999Z,75.40
2023-09-15T05:47:24.015Z,75.12
2023-09-15T05:49:51.017Z,75.58
2023-09-15T05:52:18.856Z,74.82
2023-09-15T05:54:45.811Z,75.15
2023-09-15T05:57:12.825Z,75.61
2023-09-15T05:59:39.687Z,75.66
2023-09-15T06:02:08.292Z,75.66
2023-09-15T06:04:35.382Z,76.26
2023-09-15T06:07:02.449Z,76.69
2023-09-15T06:09:29.398Z,75.50
2023-09-15T06:11:56.258Z,74.83
2023-09-15T06:14:23.230Z,75.02
2023-09-15T06:16:50.253Z,74.26
2023-09-15T06:19:17.171Z,73.97
2023-09-15T06:21:44.088Z,73.32
2023-09-15T06:24:10.977Z,73.68
2023-09-15T06:26:39.265Z,72.65
2023-09-15T06:29:07.307Z,72.26
2023-09-15T06:31:34.629Z,72.49
2023-09-15T06:34:01.921Z,71.55
2023-09-15T06:36:28.843Z,70.21
2023-09-15T06:38:56.128Z,70.62
2023-09-15T06:41:23.101Z,70.75
2023-09-15T06:43:50.256Z,70.45
2023-09-15T06:46:23.161Z,71.12
2023-09-15T06:48:50.638Z,71.42
2023-09-15T06:51:17.556Z,71.33
2023-09-15T06:53:44.451Z,70.88
2023-09-15T06:56:11.257Z,70.85
2023-09-15T06:58:38.107Z,70.49
2023-09-15T07:01:05.427Z,69.73
2023-09-15T07:03:34.136Z,69.17
2023-09-15T07:06:01.209Z,68.22
2023-09-15T07:08:28.179Z,67.34
2023-09-15T07:10:55.089Z,65.95
2023-09-15T07:13:22.250Z,64.58
2023-09-15T07:15:49.192Z,63.61
2023-09-15T07:18:16.270Z,64.18
2023-09-15T07:20:43.458Z,64.01
2023-09-15T07:23:11.012Z,64.11
2023-09-15T07:25:38.383Z,63.00
2023-09-15T07:28:06.065Z,62.38
2023-09-15T07:30:33.120Z,62.69
2023-09-15T07:33:01.037Z,61.20
2023-09-15T07:35:28.164Z,62.14
2023-09-15T07:37:55.078Z,60.67
2023-09-15T07:40:25.269Z,61.62
2023-09-15T07:42:52.796Z,61.89
2023-09-15T07:45:19.912Z,61.67
2023-09-15T07:47:47.452Z,60.78
2023-09-15T07:50:14.688Z,60.56
2023-09-15T07:52:42.044Z,59.43
2023-09-15T07:55:09.443Z,59.33
2023-09-15T07:57:38.583Z,58.75
2023-09-15T08:00:08.638Z,59.85
2023-09-15T08:02:41.702Z,58.58
2023-09-15T08:05:09.338Z,58.55
2023-09-15T08:07:36.469Z,56.80
2023-09-15T08:10:04.968Z,56.76
2023-09-15T08:12:32.340Z,56.30
2023-09-15T08:14:59.231Z,56.21
2023-09-15T08:17:33.782Z,55.94
2023-09-15T08:20:03.034Z,56.03
2023-09-15T08:22:31.459Z,54.35
2023-09-15T08:24:59.789Z,54.05
2023-09-15T08:27:27.134Z,53.40
2023-09-15T08:29:54.371Z,53.79
2023-09-15T08:32:21.363Z,54.40
2023-09-15T08:34:48.291Z,53.82
2023-09-15T08:37:15.329Z,53.69
2023-09-15T08:39:42.242Z,52.69
2023-09-15T08:42:24.968Z,52.73
2023-09-15T08:44:53.144Z,52.69
2023-09-15T08:47:23.612Z,52.53
2023-09-15T08:49:52.787Z,53.72
2023-09-15T08:52:20.250Z,53.17
2023-09-15T08:54:47.791Z,52.33
2023-09-15T08:57:16.681Z,53.60
2023-09-15T08:59:44.042Z,52.55
2023-09-15T09:02:13.498Z,51.68
2023-09-15T09:04:41.021Z,52.45
2023-09-15T09:07:09.003Z,52.11
2023-09-15T09:09:37.776Z,52.21
2023-09-15T09:12:05.153Z,50.25
2023-09-15T09:14:32.013Z,50.30
2023-09-15T09:16:59.712Z,49.77
2023-09-15T09:19:36.277Z,49.47
2023-09-15T09:22:03.782Z,50.29
2023-09-15T09:24:30.801Z,50.39
2023-09-15T09:26:57.907Z,51.78
2023-09-15T09:29:28.979Z,50.38
2023-09-15T09:31:56.661Z,50.50
2023-09-15T09:34:39.502Z,50.72
2023-09-15T09:37:10.736Z,49.93
2023-09-15T09:39:37.802Z,48.75
2023-09-15T09:42:05.437Z,48.82
2023-09-15T09:44:37.398Z,48.79
2023-09-15T09:47:10.874Z,48.28
2023-09-15T09:49:38.741Z,48.25
2023-09-15T09:52:05.764Z,47.30
2023-09-15T09:54:35.363Z,46.78
2023-09-15T09:57:04.001Z,47.16
2023-09-15T09:59:31.113Z,47.76
2023-09-15T10:01:58.034Z,48.42
2023-09-15T10:04:24.960Z,47.04
2023-09-15T10:06:52.503Z,46.60
2023-09-15T10:09:20.042Z,47.20
2023-09-15T10:11:47.812Z,46.35
2023-09-15T10:14:15.204Z,45.24
2023-09-15T10:16:42.089Z,44.17
2023-09-15T10:19:10.725Z,43.97
2023-09-15T10:21:38.571Z,44.88
2023-09-15T10:24:07.590Z,44.69
2023-09-15T10:26:43.033Z,43.69
2023-09-15T10:29:14.447Z,44.83
2023-09-15T10:31:48.320Z,45.78
2023-09-15T10:34:17.330Z,45.04
2023-09-15T10:36:45.837Z,45.20
2023-09-15T10:39:18.382Z,44.24
2023-09-15T10:41:46.129Z,44.57
2023-09-15T10:44:13.565Z,44.94
2023-09-15T10:46:43.211Z,44.36
2023-09-15T10:49:15.455Z,44.36
2023-09-15T10:51:56.949Z,44.00
2023-09-15T10:54:31.014Z,43.29
2023-09-15T10:56:58.827Z,44.04
2023-09-15T10:59:27.080Z,43.30
2023-09-15T11:01:55.165Z,42.58
2023-09-15T11:04:22.879Z,43.04
2023-09-15T11:06:51.988Z,43.02
2023-09-15T11:09:20.515Z,42.40
2023-09-15T11:11:49.591Z,42.44
2023-09-15T11:14:17.722Z,42.45
2023-09-15T11:16:52.780Z,41.77
2023-09-15T11:19:21.536Z,41.48
2023-09-15T11:21:49.392Z,41.33
2023-09-15T11:24:17.247Z,40.92
2023-09-15T11:26:52.056Z,40.86
2023-09-15T11:29:45.993Z,40.29
2023-09-15T11:32:15.960Z,41.13
2023-09-15T11:34:43.024Z,41.62
2023-09-15T11:37:10.035Z,42.17
2023-09-15T11:39:37.739Z,42.26
2023-09-15T11:42:11.756Z,43.42
2023-09-15T11:44:38.940Z,42.82
2023-09-15T11:47:06.601Z,42.21
2023-09-15T11:49:34.593Z,41.80
2023-09-15T11:52:01.863Z,41.33
2023-09-15T11:54:28.863Z,40.89
2023-09-15T11:56:57.594Z,40.70
2023-09-15T11:59:25.753Z,39.99
2023-09-15T12:01:56.157Z,40.41
2023-09-15T12:04:25.643Z,40.52
2023-09-15T12:06:52.755Z,40.23
2023-09-15T12:09:21.030Z,40.13
2023-09-15T12:11:48.155Z,40.56
2023-09-15T12:14:15.955Z,40.58
2023-09-15T12:16:47.420Z,40.91
2023-09-15T12:19:17.790Z,41.06
2023-09-15T12:21:56.396Z,40.11
2023-09-15T12:24:25.178Z,40.38
2023-09-15T12:26:52.904Z,40.87
2023-09-15T12:29:20.228Z,41.68
2023-09-15T12:31:47.353Z,42.38
2023-09-15T12:34:21.418Z,42.56
2023-09-15T12:36:50.663Z,42.34
2023-09-15T12:39:17.882Z,42.38
2023-09-15T12:41:45.228Z,42.04
2023-09-15T12:44:12.731Z,41.04
2023-09-15T12:46:39.855Z,41.43
2023-09-15T12:49:07.748Z,40.82
2023-09-15T12:51:35.009Z,40.23
2023-09-15T12:54:02.269Z,40.45
2023-09-15T12:56:29.313Z,40.36
2023-09-15T12:58:56.441Z,40.69
2023-09-15T13:01:23.443Z,40.97
2023-09-15T13:03:50.997Z,40.45
2023-09-15T13:06:18.081Z,39.94
2023-09-15T13:08:44.917Z,39.93
2023-09-15T13:24:40.416Z,38.39
2023-09-15T13:27:07.823Z,38.40
2023-09-15T13:29:37.613Z,38.71
2023-09-15T13:32:04.912Z,38.65
2023-09-15T13:34:33.377Z,39.47
2023-09-15T13:37:00.605Z,39.29
2023-09-15T13:39:27.820Z,38.82
2023-09-15T13:41:54.907Z,39.69
2023-09-15T13:44:22.058Z,39.90
2023-09-15T13:46:48.972Z,40.07
2023-09-15T13:49:17.158Z,40.11
2023-09-15T13:51:45.017Z,40.96
2023-09-15T13:54:12.417Z,40.73
2023-09-15T13:56:39.429Z,41.00
2023-09-15T13:59:06.500Z,40.34
2023-09-15T14:01:34.392Z,41.00
2023-09-15T14:04:01.482Z,40.38
2023-09-15T14:06:28.652Z,40.85
2023-09-15T14:08:55.808Z,40.75
2023-09-15T14:11:22.865Z,41.00
2023-09-15T14:13:49.852Z,42.60
2023-09-15T14:16:17.078Z,42.20
2023-09-15T14:18:44.352Z,42.63
2023-09-15T14:21:11.433Z,42.64
2023-09-15T14:23:38.433Z,42.70
2023-09-15T14:26:05.547Z,42.91
2023-09-15T14:28:32.553Z,42.50
2023-09-15T14:31:04.736Z,42.94
2023-09-15T14:33:32.127Z,42.43
2023-09-15T14:35:59.127Z,42.84
2023-09-15T14:38:27.038Z,43.27
2023-09-15T14:40:54.859Z,42.99
2023-09-15T14:43:21.992Z,42.98
2023-09-15T14:45:49.059Z,42.80
2023-09-15T14:48:17.632Z,43.19
2023-09-15T14:50:46.429Z,44.00
2023-09-15T14:53:13.457Z,43.83
2023-09-15T14:55:40.546Z,44.44
2023-09-15T14:58:07.523Z,43.80
2023-09-15T15:00:34.468Z,43.94
2023-09-15T15:03:03.304Z,44.24
2023-09-15T15:05:30.581Z,44.54
2023-09-15T15:07:57.547Z,44.77
2023-09-15T15:10:25.357Z,45.42
2023-09-15T15:12:52.419Z,45.48
2023-09-15T15:15:20.746Z,45.02
2023-09-15T15:17:47.974Z,45.21
2023-09-15T15:20:15.233Z,45.66
2023-09-15T15:22:42.446Z,45.46
2023-09-15T15:25:09.857Z,45.57
2023-09-15T15:27:41.582Z,46.01
2023-09-15T15:30:09.585Z,45.71
2023-09-15T15:32:38.462Z,45.44
2023-09-15T15:35:06.175Z,45.22
2023-09-15T15:37:33.276Z,45.66
2023-09-15T15:40:00.391Z,45.78
2023-09-15T15:42:27.680Z,45.90
2023-09-15T15:44:58.389Z,46.34
2023-09-15T15:47:25.687Z,47.51
2023-09-15T15:49:56.415Z,47.13
2023-09-15T15:52:24.019Z,47.78
2023-09-15T15:54:51.036Z,47.45
2023-09-15T15:57:18.081Z,48.05
2023-09-15T15:59:45.304Z,48.71
2023-09-15T16:02:14.400Z,48.50
2023-09-15T16:04:42.113Z,49.59
2023-09-15T16:07:09.436Z,49.08
2023-09-15T16:09:36.966Z,49.43
2023-09-15T16:12:06.782Z,49.98
2023-09-15T16:14:34.363Z,49.30
2023-09-15T16:17:01.401Z,49.83
2023-09-15T16:19:28.494Z,51.11
2023-09-15T16:21:55.601Z,51.02
2023-09-15T16:24:22.633Z,50.35
2023-09-15T16:26:49.943Z,51.07
2023-09-15T16:29:16.851Z,51.44
2023-09-15T16:31:43.858Z,51.49
2023-09-15T16:34:10.813Z,52.06
2023-09-15T16:36:38.148Z,52.57
2023-09-15T16:39:05.329Z,52.49
2023-09-15T16:41:32.497Z,53.41
2023-09-15T16:43:59.435Z,53.70
2023-09-15T16:46:26.449Z,53.63
2023-09-15T16:48:53.570Z,53.84
2023-09-15T16:51:21.113Z,54.10
2023-09-15T16:53:48.076Z,54.77
2023-09-15T16:56:16.217Z,54.34
2023-09-15T16:58:43.606Z,54.59
2023-09-15T17:01:10.928Z,54.08
2023-09-15T17:03:39.269Z,53.84
2023-09-15T17:06:06.596Z,54.27
2023-09-15T17:08:33.651Z,54.54
2023-09-15T17:11:03.095Z,54.37
2023-09-15T17:13:30.607Z,54.93
2023-09-15T17:15:57.908Z,55.48
2023-09-15T17:18:25.708Z,55.74
2023-09-15T17:20:52.870Z,55.02
2023-09-15T17:23:19.854Z,55.20
2023-09-15T17:25:47.231Z,54.43
2023-09-15T17:28:14.195Z,55.10
2023-09-15T17:30:41.355Z,54.93
2023-09-15T17:33:11.312Z,54.87
2023-09-15T17:35:38.908Z,54.76
2023-09-15T17:38:06.102Z,55.14
2023-09-15T17:40:34.476Z,54.61
2023-09-15T17:43:01.627Z,54.33
2023-09-15T17:45:28.697Z,54.49
2023-09-15T17:47:55.864Z,54.04
2023-09-15T17:50:23.416Z,53.86
2023-09-15T17:52:51.501Z,54.40
2023-09-15T17:55:19.549Z,54.51
2023-09-15T17:57:49.548Z,54.09
2023-09-15T18:00:18.163Z,53.68
2023-09-15T18:02:46.718Z,53.89
2023-09-15T18:05:14.014Z,55.52
2023-09-15T18:07:41.499Z,54.70
2023-09-15T18:10:10.029Z,55.05
2023-09-15T18:12:38.908Z,55.08
2023-09-15T18:15:13.758Z,56.02
2023-09-15T18:17:43.598Z,55.87
2023-09-15T18:20:11.557Z,56.11
2023-09-15T18:22:40.042Z,55.90
2023-09-15T18:25:09.752Z,56.28
2023-09-15T18:27:38.981Z,56.15
2023-09-15T18:30:06.843Z,56.47
2023-09-15T18:32:34.448Z,56.58
2023-09-15T18:35:01.778Z,56.86
2023-09-15T18:37:28.824Z,57.43
2023-09-15T18:39:58.508Z,57.24
2023-09-15T18:42:25.708Z,56.49
2023-09-15T18:44:52.651Z,56.99
2023-09-15T18:47:20.657Z,56.64
2023-09-15T18:49:47.696Z,56.48
2023-09-15T18:52:15.429Z,56.64
2023-09-15T18:54:42.789Z,56.57
2023-09-15T18:57:09.885Z,56.89
2023-09-15T18:59:37.149Z,56.36
2023-09-15T19:02:04.477Z,56.35
2023-09-15T19:04:31.827Z,57.65
2023-09-15T19:06:59.236Z,57.25
2023-09-15T19:09:26.542Z,56.22
2023-09-15T19:11:53.867Z,56.28
2023-09-15T19:14:20.906Z,57.19
2023-09-15T19:16:50.856Z,57.21
2023-09-15T19:19:18.026Z,56.99
2023-09-15T19:21:46.482Z,58.17
2023-09-15T19:24:13.812Z,59.35
2023-09-15T19:26:41.066Z,60.59
2023-09-15T19:29:09.610Z,61.12
2023-09-15T19:31:36.614Z,62.09
2023-09-15T19:34:05.387Z,63.37
2023-09-15T19:36:32.630Z,63.53
2023-09-15T19:39:04.759Z,63.75
2023-09-15T19:41:32.528Z,65.22
2023-09-15T19:44:00.024Z,65.45
2023-09-15T19:46:27.251Z,65.90
2023-09-15T19:48:54.513Z,66.63
2023-09-15T19:51:22.005Z,66.56
2023-09-15T19:53:49.260Z,67.44
2023-09-15T19:56:16.819Z,67.64
2023-09-15T19:58:44.095Z,67.42
2023-09-15T20:01:11.677Z,67.76
2023-09-15T20:03:40.154Z,68.62
2023-09-15T20:06:07.328Z,68.45
2023-09-15T20:08:34.339Z,68.14
2023-09-15T20:11:01.343Z,67.87
2023-09-15T20:13:28.344Z,68.17
2023-09-15T20:15:55.625Z,67.69
2023-09-15T20:18:23.510Z,67.65
2023-09-15T20:20:53.869Z,67.96
2023-09-15T20:23:21.245Z,68.59
2023-09-15T20:25:49.467Z,68.93
2023-09-15T20:28:17.347Z,68.10
2023-09-15T20:30:44.481Z,67.97
2023-09-15T20:33:11.885Z,68.17
2023-09-15T20:35:44.984Z,68.47
2023-09-15T20:38:12.139Z,68.20
2023-09-15T20:40:39.790Z,69.27
2023-09-15T20:43:07.143Z,69.56
2023-09-15T20:45:34.601Z,68.90
2023-09-15T20:48:01.988Z,68.39
2023-09-15T20:50:29.969Z,68.23
2023-09-15T20:52:59.704Z,68.08
2023-09-15T20:55:28.376Z,68.40
2023-09-15T20:57:55.506Z,69.08
2023-09-15T21:00:23.111Z,70.04
2023-09-15T21:02:51.426Z,68.96
2023-09-15T21:05:18.808Z,68.70
2023-09-15T21:07:46.759Z,68.76
2023-09-15T21:10:17.579Z,69.35
2023-09-15T21:12:47.358Z,70.01
2023-09-15T21:15:15.308Z,68.66
2023-09-15T21:17:43.005Z,68.79
2023-09-15T21:20:11.431Z,68.63
2023-09-15T21:22:38.966Z,68.51
2023-09-15T21:25:06.669Z,68.83
2023-09-15T21:27:33.616Z,68.27
2023-09-15T21:30:01.291Z,68.64
2023-09-15T21:32:30.241Z,68.75
2023-09-15T21:34:59.342Z,68.27
2023-09-15T21:37:26.248Z,67.73
2023-09-15T21:39:53.600Z,67.59
2023-09-15T21:42:24.600Z,67.45
2023-09-15T21:44:54.306Z,68.25
2023-09-15T21:47:21.827Z,67.98
2023-09-15T21:49:49.676Z,68.34
2023-09-15T21:52:17.026Z,68.67
2023-09-15T21:54:43.982Z,69.15
2023-09-15T21:57:14.393Z,69.55
2023-09-15T21:59:42.307Z,69.72
2023-09-15T22:02:13.017Z,70.24
2023-09-15T22:04:43.437Z,70.83
2023-09-15T22:07:15.867Z,70.81
2023-09-15T22:09:46.868Z,72.61
2023-09-15T22:12:18.130Z,72.28
2023-09-15T22:14:50.071Z,73.31
2023-09-15T22:17:21.479Z,72.64
2023-09-15T22:19:49.603Z,73.78
2023-09-15T22:22:21.895Z,73.61
2023-09-15T22:25:09.436Z,73.42
2023-09-15T22:27:36.731Z,73.27
2023-09-15T22:30:07.036Z,73.67
2023-09-15T22:32:36.208Z,74.26
2023-09-15T22:35:08.136Z,73.73
2023-09-15T22:37:37.717Z,74.91
2023-09-15T22:40:09.986Z,73.79
2023-09-15T22:42:39.653Z,74.50
2023-09-15T22:45:07.809Z,74.40
2023-09-15T22:47:42.007Z,73.53
2023-09-15T22:50:11.521Z,75.10
2023-09-15T22:52:42.652Z,75.44
2023-09-15T22:55:14.947Z,76.43
2023-09-15T22:57:42.812Z,77.32
2023-09-15T23:00:14.176Z,79.58
2023-09-15T23:02:44.380Z,80.07
2023-09-15T23:05:14.423Z,79.97
2023-09-15T23:07:44.577Z,80.35
2023-09-15T23:10:13.641Z,80.27
2023-09-15T23:12:42.308Z,83.13
2023-09-15T23:15:14.055Z,83.24
2023-09-15T23:17:41.861Z,85.02
2023-09-15T23:20:09.249Z,84.43
2023-09-15T23:22:37.952Z,84.93
2023-09-15T23:25:06.315Z,85.47
2023-09-15T23:27:35.161Z,85.72
2023-09-15T23:30:04.613Z,85.08
2023-09-15T23:32:32.152Z,84.66
2023-09-15T23:34:59.683Z,84.69
2023-09-15T23:37:38.071Z,84.36
2023-09-15T23:40:10.334Z,83.91
2023-09-15T23:42:42.400Z,83.69
2023-09-15T23:45:10.222Z,86.17
2023-09-15T23:47:37.878Z,85.76
2023-09-15T23:50:08.549Z,85.51
2023-09-15T23:52:35.641Z,85.71
2023-09-15T23:55:03.354Z,85.74
2023-09-15T23:57:30.437Z,86.40
2023-09-15T23:59:58.253Z,86.07
